Time;durP1;ratioP1;P1;durP2;ratioP2;P2;SDS_P1;SDS_P2;PMS_P1;PMS_P2;Temp;Humidity;BMP_temperature;BMP_pressure;BME280_temperature;BME280_humidity;BME280_pressure;Samples;Min_cycle;Max_cycle;Signal;HPM_P1;HPM_P2
2022/03/27 00:01:31;;;;;;;0.20;0.20;;;;;;;20.85;34.19;102688.81;5123436;27;20038;-28
2022/03/27 00:03:57;;;;;;;0.20;0.20;;;;;;;20.84;34.40;102687.16;5111039;27;20454;-27
2022/03/27 00:06:23;;;;;;;0.17;0.17;;;;;;;20.86;34.10;102692.47;5142274;27;20071;-27
2022/03/27 00:08:48;;;;;;;0.20;0.20;;;;;;;20.85;34.27;102688.00;5142126;27;20054;-27
2022/03/27 00:11:29;;;;;;;0.20;0.20;;;;;;;20.85;34.07;102686.06;5142295;27;20441;-28
2022/03/27 00:13:58;;;;;;;0.20;0.20;;;;;;;20.85;34.32;102686.06;5131563;27;20472;-26
2022/03/27 00:16:24;;;;;;;0.20;0.20;;;;;;;20.85;34.23;102685.22;5128168;28;20066;-26
2022/03/27 00:18:50;;;;;;;0.20;0.20;;;;;;;20.85;34.45;102686.06;5095650;28;20208;-30
2022/03/27 00:21:16;;;;;;;0.20;0.20;;;;;;;20.85;34.15;102691.59;5125325;28;20091;-30
2022/03/27 00:23:43;;;;;;;0.20;0.20;;;;;;;20.84;34.07;102689.94;5131023;28;20036;-29
2022/03/27 00:26:09;;;;;;;0.20;0.20;;;;;;;20.85;34.23;102691.59;5131165;28;20109;-30
2022/03/27 00:28:35;;;;;;;0.20;0.20;;;;;;;20.84;34.13;102687.16;5130422;28;20084;-29
2022/03/27 00:31:04;;;;;;;0.20;0.20;;;;;;;20.84;34.40;102695.47;5126732;28;20047;-29
2022/03/27 00:33:31;;;;;;;0.10;0.10;;;;;;;20.84;34.24;102691.84;5112485;28;20071;-29
2022/03/27 00:35:58;;;;;;;0.20;0.20;;;;;;;20.83;34.27;102696.56;5128577;28;20490;-30
2022/03/27 00:38:25;;;;;;;0.10;0.10;;;;;;;20.83;34.39;102685.47;5128379;28;20074;-29
2022/03/27 00:40:52;;;;;;;0.20;0.20;;;;;;;20.84;34.34;102689.09;5109526;28;20078;-30
2022/03/27 00:43:19;;;;;;;0.20;0.20;;;;;;;20.83;34.40;102696.56;5130827;28;20078;-28
2022/03/27 00:45:45;;;;;;;0.20;0.20;;;;;;;20.84;34.19;102686.31;5128303;27;20073;-29
2022/03/27 00:48:11;;;;;;;0.20;0.20;;;;;;;20.84;34.22;102698.22;5110923;28;20668;-29
2022/03/27 00:50:37;;;;;;;0.20;0.20;;;;;;;20.83;34.32;102698.50;5127350;28;20043;-29
2022/03/27 00:53:03;;;;;;;0.10;0.10;;;;;;;20.83;34.26;102692.97;5111980;28;20062;-29
2022/03/27 00:55:28;;;;;;;0.10;0.10;;;;;;;20.83;34.40;102696.56;5111939;28;20388;-30
2022/03/27 00:57:55;;;;;;;0.10;0.10;;;;;;;20.83;34.48;102690.19;5127807;28;20043;-30
2022/03/27 01:00:43;;;;;;;0.10;0.10;;;;;;;20.82;34.39;102694.88;5124085;28;20091;-29
2022/03/27 01:03:12;;;;;;;0.30;0.30;;;;;;;20.83;34.16;102690.19;5095583;28;20097;-30
2022/03/27 01:05:39;;;;;;;0.20;0.20;;;;;;;20.83;34.15;102696.56;5127137;28;20039;-30
2022/03/27 01:08:06;;;;;;;0.10;0.10;;;;;;;20.84;34.19;102686.31;5127477;28;21192;-30
2022/03/27 01:10:32;;;;;;;0.13;0.13;;;;;;;20.84;34.21;102691.84;5127767;28;20039;-30
2022/03/27 01:12:58;;;;;;;0.20;0.20;;;;;;;20.84;34.55;102681.63;5109922;28;20054;-29
2022/03/27 01:15:31;;;;;;;0.20;0.20;;;;;;;20.84;34.21;102683.56;5128793;28;20092;-29
2022/03/27 01:17:57;;;;;;;0.10;0.10;;;;;;;20.83;34.23;102681.88;5126390;28;20070;-29
2022/03/27 01:20:31;;;;;;;0.20;0.20;;;;;;;20.83;34.26;102676.34;5127801;28;20629;-29
2022/03/27 01:22:57;;;;;;;0.20;0.20;;;;;;;20.83;34.47;102676.34;5126636;28;20133;-30
2022/03/27 01:25:23;;;;;;;0.20;0.20;;;;;;;20.83;34.45;102676.34;5128022;27;20077;-30
2022/03/27 01:27:48;;;;;;;0.20;0.20;;;;;;;20.83;34.24;102682.72;5129589;28;20043;-30
2022/03/27 01:30:14;;;;;;;0.10;0.10;;;;;;;20.84;34.18;102669.72;5125452;28;20047;-30
2022/03/27 01:32:39;;;;;;;0.20;0.20;;;;;;;20.83;34.46;102663.34;5126846;28;20055;-30
2022/03/27 01:35:06;;;;;;;0.20;0.20;;;;;;;20.83;34.21;102659.72;5127638;28;20046;-29
2022/03/27 01:37:32;;;;;;;0.20;0.20;;;;;;;20.83;34.27;102659.72;5126330;27;20587;-30
2022/03/27 01:39:57;;;;;;;0.20;0.20;;;;;;;20.83;34.28;102660.56;5127668;28;20075;-30
2022/03/27 01:42:23;;;;;;;0.20;0.20;;;;;;;20.83;34.40;102657.78;5127410;28;20092;-30
2022/03/27 01:44:49;;;;;;;0.20;0.20;;;;;;;20.83;34.27;102656.97;5128110;27;20508;-29
2022/03/27 01:47:14;;;;;;;0.10;0.10;;;;;;;20.82;34.26;102658.06;5128324;28;20043;-30
2022/03/27 01:49:41;;;;;;;0.20;0.20;;;;;;;20.82;34.37;102656.13;5125898;28;20043;-30
2022/03/27 01:52:06;;;;;;;0.20;0.20;;;;;;;20.83;34.51;102656.97;5127810;28;20140;-30
2022/03/27 01:54:32;;;;;;;0.10;0.10;;;;;;;20.81;34.64;102646.09;5127429;28;20136;-30
2022/03/27 01:56:58;;;;;;;0.20;0.20;;;;;;;20.83;34.59;102656.97;5110197;28;20054;-29
2022/03/27 01:59:24;;;;;;;0.20;0.20;;;;;;;20.82;34.43;102653.34;5127285;28;20050;-30
2022/03/27 02:01:50;;;;;;;0.10;0.10;;;;;;;20.82;34.43;102658.88;5106710;28;20150;-29
2022/03/27 02:04:16;;;;;;;0.20;0.20;;;;;;;20.83;34.20;102657.78;5108859;28;20051;-30
2022/03/27 02:06:43;;;;;;;0.10;0.10;;;;;;;20.82;34.23;102656.13;5128605;28;20067;-30
2022/03/27 02:09:12;;;;;;;0.20;0.20;;;;;;;20.83;34.50;102659.72;5127328;28;20134;-30
2022/03/27 02:11:39;;;;;;;0.10;0.10;;;;;;;20.83;34.19;102657.78;5125426;28;20096;-29
2022/03/27 02:14:05;;;;;;;0.20;0.20;;;;;;;20.82;34.24;102655.28;5109246;28;20043;-29
2022/03/27 02:16:30;;;;;;;0.20;0.20;;;;;;;20.82;34.51;102658.88;5125544;28;20042;-29
2022/03/27 02:18:56;;;;;;;0.20;0.20;;;;;;;20.83;34.17;102654.19;5127099;28;20095;-30
2022/03/27 02:21:22;;;;;;;0.10;0.10;;;;;;;20.83;34.15;102656.97;5126813;28;20085;-30
2022/03/27 02:23:48;;;;;;;0.13;0.13;;;;;;;20.83;34.26;102655.03;5126086;28;20309;-30
2022/03/27 02:26:13;;;;;;;0.10;0.10;;;;;;;20.80;34.56;102661.88;5128438;28;20474;-30
2022/03/27 02:28:40;;;;;;;0.10;0.10;;;;;;;20.82;34.25;102658.06;5109682;28;20126;-30
2022/03/27 02:31:06;;;;;;;0.20;0.20;;;;;;;20.82;34.48;102656.13;5126551;28;20070;-31
2022/03/27 02:33:32;;;;;;;0.10;0.10;;;;;;;20.80;34.34;102648.03;5109297;28;20039;-30
2022/03/27 02:35:57;;;;;;;0.20;0.20;;;;;;;20.83;34.53;102649.50;5127428;27;20045;-30
2022/03/27 02:38:23;;;;;;;0.10;0.10;;;;;;;20.83;34.24;102651.41;5125722;28;20051;-30
2022/03/27 02:40:49;;;;;;;0.20;0.20;;;;;;;20.83;34.56;102654.19;5126203;28;20100;-29
2022/03/27 02:43:15;;;;;;;0.20;0.20;;;;;;;20.82;34.44;102655.28;5126939;28;20050;-30
2022/03/27 02:45:41;;;;;;;0.20;0.20;;;;;;;20.82;34.51;102655.28;5126677;27;20482;-30
2022/03/27 02:48:07;;;;;;;0.20;0.20;;;;;;;20.82;34.26;102663.59;5126955;28;20047;-30
2022/03/27 02:50:33;;;;;;;0.20;0.20;;;;;;;20.80;34.34;102656.34;5125120;28;20137;-30
2022/03/27 02:52:59;;;;;;;0.20;0.20;;;;;;;20.81;34.58;102657.19;5106477;28;20085;-29
2022/03/27 02:55:26;;;;;;;0.20;0.20;;;;;;;20.80;34.42;102645.28;5127684;28;20063;-30
2022/03/27 02:57:52;;;;;;;0.20;0.20;;;;;;;20.80;34.33;102648.03;5108903;28;20073;-30
2022/03/27 03:00:19;;;;;;;0.17;0.17;;;;;;;20.80;34.30;102647.22;5126084;28;20501;-30
2022/03/27 03:02:45;;;;;;;0.10;0.10;;;;;;;20.80;34.49;102641.66;5127217;28;20505;-30
2022/03/27 03:05:11;;;;;;;0.20;0.20;;;;;;;20.81;34.23;102637.81;5127399;28;20104;-29
2022/03/27 03:07:42;;;;;;;0.20;0.20;;;;;;;20.81;34.41;102646.09;5126992;28;20045;-30
2022/03/27 03:10:09;;;;;;;0.20;0.20;;;;;;;20.80;34.54;102650.81;5107544;28;20134;-30
2022/03/27 03:12:38;;;;;;;0.13;0.13;;;;;;;20.81;34.24;102648.88;5125905;28;20055;-30
2022/03/27 03:15:04;;;;;;;0.20;0.20;;;;;;;20.81;34.48;102646.09;5128063;28;20359;-30
2022/03/27 03:17:30;;;;;;;0.20;0.20;;;;;;;20.82;34.34;102641.44;5127785;28;20047;-29
2022/03/27 03:19:55;;;;;;;0.20;0.20;;;;;;;20.80;34.66;102645.28;5106090;28;20043;-30
2022/03/27 03:22:21;;;;;;;0.20;0.20;;;;;;;20.82;34.25;102642.28;5126796;28;20043;-29
2022/03/27 03:24:47;;;;;;;0.20;0.20;;;;;;;20.81;34.49;102651.66;5127485;28;20402;-29
2022/03/27 03:27:13;;;;;;;0.20;0.20;;;;;;;20.80;34.46;102648.03;5126885;28;20054;-30
2022/03/27 03:29:39;;;;;;;0.20;0.20;;;;;;;20.80;34.27;102645.28;5124811;28;20474;-30
2022/03/27 03:32:05;;;;;;;0.20;0.20;;;;;;;20.80;34.57;102642.50;5127434;28;20100;-30
2022/03/27 03:34:30;;;;;;;0.20;0.20;;;;;;;20.81;34.34;102643.34;5126919;28;20538;-30
2022/03/27 03:36:56;;;;;;;0.10;0.10;;;;;;;20.81;34.45;102646.09;5126539;28;20478;-30
2022/03/27 03:39:22;;;;;;;0.10;0.10;;;;;;;20.79;34.65;102642.78;5107880;28;20050;-29
2022/03/27 03:41:48;;;;;;;0.20;0.20;;;;;;;20.80;34.45;102638.91;5124791;28;20466;-29
2022/03/27 03:44:24;;;;;;;0.20;0.20;;;;;;;20.79;34.59;102635.28;5126058;28;20489;-30
2022/03/27 03:46:50;;;;;;;0.20;0.20;;;;;;;20.82;34.53;102646.97;5126689;28;20066;-29
2022/03/27 03:49:16;;;;;;;0.20;0.20;;;;;;;20.79;34.47;102640.84;5128162;28;20048;-29
2022/03/27 03:51:41;;;;;;;0.20;0.20;;;;;;;20.81;34.54;102629.50;5126300;28;21751;-30
2022/03/27 03:54:07;;;;;;;0.20;0.20;;;;;;;20.82;34.35;102635.91;5129013;28;20115;-29
2022/03/27 03:56:34;;;;;;;0.20;0.20;;;;;;;20.80;34.61;102639.75;5127238;28;20498;-29
2022/03/27 03:58:59;;;;;;;0.20;0.20;;;;;;;20.80;34.73;102641.66;5127844;28;20172;-30
2022/03/27 04:01:45;;;;;;;0.10;0.10;;;;;;;20.80;34.37;102636.97;5114178;28;20043;-29
2022/03/27 04:04:11;;;;;;;0.20;0.20;;;;;;;20.80;34.67;102630.59;5128568;28;20092;-29
2022/03/27 04:06:36;;;;;;;0.20;0.20;;;;;;;20.80;34.24;102636.13;5129545;28;20474;-29
2022/03/27 04:09:02;;;;;;;0.20;0.20;;;;;;;20.81;34.41;102637.81;5130749;28;20248;-29
2022/03/27 04:11:28;;;;;;;0.20;0.20;;;;;;;20.80;34.37;102633.38;5129677;28;20058;-29
2022/03/27 04:13:53;;;;;;;0.20;0.20;;;;;;;20.79;34.54;102632.53;5129540;28;21849;-30
2022/03/27 04:16:19;;;;;;;0.20;0.20;;;;;;;20.79;34.57;102640.00;5129233;28;20054;-29
2022/03/27 04:18:46;;;;;;;0.20;0.20;;;;;;;20.80;34.58;102633.38;5130432;28;20072;-30
2022/03/27 04:21:11;;;;;;;0.20;0.20;;;;;;;20.80;34.66;102630.59;5126644;28;20505;-30
2022/03/27 04:23:37;;;;;;;0.20;0.20;;;;;;;20.79;34.60;102629.75;5129857;28;20041;-29
2022/03/27 04:26:03;;;;;;;0.20;0.20;;;;;;;20.77;34.45;102640.25;5129681;28;20486;-29
2022/03/27 04:28:29;;;;;;;0.20;0.20;;;;;;;20.79;34.38;102635.28;5129340;28;20082;-29
2022/03/27 04:30:55;;;;;;;0.20;0.20;;;;;;;20.79;34.61;102640.00;5093580;28;20768;-29
2022/03/27 04:33:21;;;;;;;0.20;0.20;;;;;;;20.77;34.54;102643.03;5125265;28;20453;-29
2022/03/27 04:35:47;;;;;;;0.20;0.20;;;;;;;20.78;34.77;102638.31;5125702;28;20043;-29
2022/03/27 04:38:13;;;;;;;0.20;0.20;;;;;;;20.78;34.55;102647.47;5127208;28;20249;-29
2022/03/27 04:40:39;;;;;;;0.10;0.10;;;;;;;20.78;34.31;102650.25;5111319;28;20093;-29
2022/03/27 04:43:05;;;;;;;0.13;0.13;;;;;;;20.79;34.52;102649.13;5110343;28;20466;-29
2022/03/27 04:45:31;;;;;;;0.20;0.20;;;;;;;20.79;34.69;102653.84;5128489;28;20107;-29
2022/03/27 04:47:57;;;;;;;0.20;0.20;;;;;;;20.78;34.68;102661.31;5128779;28;20047;-29
2022/03/27 04:50:23;;;;;;;0.20;0.20;;;;;;;20.78;34.64;102660.47;5124664;28;20401;-29
2022/03/27 04:52:48;;;;;;;0.20;0.20;;;;;;;20.79;34.47;102659.38;5127349;28;20130;-29
2022/03/27 04:55:14;;;;;;;0.20;0.20;;;;;;;20.78;34.80;102663.25;5130266;28;20118;-29
2022/03/27 04:57:41;;;;;;;0.20;0.20;;;;;;;20.78;34.64;102672.38;5129042;28;20386;-29
2022/03/27 05:00:12;;;;;;;0.20;0.20;;;;;;;20.78;34.61;102666.84;5108501;28;20078;-30
2022/03/27 05:02:39;;;;;;;0.10;0.10;;;;;;;20.79;34.63;102671.28;5129323;28;20089;-29
2022/03/27 05:05:05;;;;;;;0.20;0.20;;;;;;;20.78;34.37;102674.31;5110640;28;20039;-29
2022/03/27 05:07:31;;;;;;;0.10;0.10;;;;;;;20.77;34.62;102670.72;5129723;28;20120;-29
2022/03/27 05:09:56;;;;;;;0.20;0.20;;;;;;;20.78;34.85;102668.78;5128046;28;20612;-30
2022/03/27 05:12:22;;;;;;;0.20;0.20;;;;;;;20.77;34.72;102672.66;5110383;28;20047;-29
2022/03/27 05:14:48;;;;;;;0.10;0.10;;;;;;;20.78;34.58;102680.69;5129781;28;20043;-30
2022/03/27 05:17:14;;;;;;;0.10;0.10;;;;;;;20.78;34.70;102677.09;5125391;28;20462;-29
2022/03/27 05:19:40;;;;;;;0.20;0.20;;;;;;;20.79;34.59;102676.00;5127296;28;20050;-30
2022/03/27 05:22:07;;;;;;;0.20;0.20;;;;;;;20.78;34.82;102671.56;5127453;28;20498;-30
2022/03/27 05:24:34;;;;;;;0.20;0.20;;;;;;;20.77;34.63;102679.03;5128998;28;20428;-30
2022/03/27 05:26:59;;;;;;;0.10;0.10;;;;;;;20.78;34.55;102677.94;5129821;28;20070;-30
2022/03/27 05:29:25;;;;;;;0.10;0.10;;;;;;;20.78;34.31;102677.94;5092762;28;20472;-29
2022/03/27 05:31:52;;;;;;;0.10;0.10;;;;;;;20.78;34.42;102677.94;5127241;28;20043;-28
2022/03/27 05:34:18;;;;;;;0.20;0.20;;;;;;;20.79;34.69;102678.75;5110545;28;20061;-30
2022/03/27 05:36:45;;;;;;;0.20;0.20;;;;;;;20.77;34.70;102683.72;5111186;28;20495;-30
2022/03/27 05:39:13;;;;;;;0.20;0.20;;;;;;;20.79;34.71;102676.00;5127698;28;20501;-30
2022/03/27 05:41:38;;;;;;;0.20;0.20;;;;;;;20.78;34.54;102680.69;5110833;28;20090;-29
2022/03/27 05:44:04;;;;;;;0.20;0.20;;;;;;;20.78;34.54;102679.84;5127935;27;20047;-30
2022/03/27 05:46:30;;;;;;;0.20;0.20;;;;;;;20.78;34.54;102685.41;5127171;28;20100;-30
2022/03/27 05:48:56;;;;;;;0.20;0.20;;;;;;;20.77;34.71;102686.50;5128143;28;20119;-29
2022/03/27 05:51:21;;;;;;;0.20;0.20;;;;;;;20.77;34.51;102684.56;5126948;28;20043;-29
2022/03/27 05:53:47;;;;;;;0.10;0.10;;;;;;;20.77;34.72;102686.50;5128114;28;20051;-29
2022/03/27 05:56:13;;;;;;;0.20;0.20;;;;;;;20.77;34.73;102697.56;5128610;28;20039;-29
2022/03/27 05:58:39;;;;;;;0.20;0.20;;;;;;;20.78;34.75;102685.41;5126209;28;20379;-29
2022/03/27 06:01:05;;;;;;;0.20;0.20;;;;;;;20.76;34.64;102685.63;5127470;28;20051;-29
2022/03/27 06:03:31;;;;;;;0.10;0.10;;;;;;;20.77;34.67;102700.34;5109640;28;20073;-29
2022/03/27 06:05:57;;;;;;;0.20;0.20;;;;;;;20.77;34.45;102698.41;5108978;28;20147;-29
2022/03/27 06:08:23;;;;;;;0.20;0.20;;;;;;;20.77;34.59;102706.72;5128242;28;20054;-29
2022/03/27 06:10:49;;;;;;;0.20;0.20;;;;;;;20.77;34.54;102709.47;5127432;27;20441;-29
2022/03/27 06:13:16;;;;;;;0.13;0.13;;;;;;;20.77;34.74;102706.72;5128139;28;20097;-29
2022/03/27 06:15:42;;;;;;;0.20;0.20;;;;;;;20.77;34.43;102706.72;5109112;28;20067;-30
2022/03/27 06:18:10;;;;;;;0.20;0.20;;;;;;;20.77;34.69;102714.19;5108639;28;20043;-30
2022/03/27 06:20:36;;;;;;;;;;;;;;;20.77;34.71;102709.47;5108328;28;20074;-30
2022/03/27 06:23:02;;;;;;;0.20;0.20;;;;;;;20.76;34.83;102713.31;5109140;28;20008;-29
2022/03/27 06:25:28;;;;;;;0.20;0.20;;;;;;;20.77;34.69;102717.78;5128502;28;20482;-29
2022/03/27 06:27:55;;;;;;;0.20;0.20;;;;;;;20.77;34.56;102719.72;5091159;28;20090;-29
2022/03/27 06:30:22;;;;;;;0.20;0.20;;;;;;;20.76;34.75;102718.84;5127195;28;20187;-30
2022/03/27 06:32:49;;;;;;;0.20;0.20;;;;;;;20.76;34.61;102716.09;5127509;27;20079;-30
2022/03/27 06:35:15;;;;;;;0.20;0.20;;;;;;;20.78;34.33;102721.41;5109358;28;20078;-29
2022/03/27 06:37:42;;;;;;;0.20;0.20;;;;;;;20.76;34.55;102718.84;5109481;28;20080;-31
2022/03/27 06:40:09;;;;;;;0.20;0.20;;;;;;;20.77;34.56;102716.94;5108420;28;20130;-30
2022/03/27 06:42:35;;;;;;;0.20;0.20;;;;;;;20.76;34.69;102718.84;5128396;27;20122;-30
2022/03/27 06:45:02;;;;;;;0.20;0.20;;;;;;;20.76;34.61;102718.03;5108760;28;20086;-29
2022/03/27 06:47:29;;;;;;;0.20;0.20;;;;;;;20.77;34.48;102716.94;5126743;28;20130;-30
2022/03/27 06:49:56;;;;;;;0.20;0.20;;;;;;;20.77;34.60;102719.72;5124375;28;20075;-29
2022/03/27 06:52:22;;;;;;;0.20;0.20;;;;;;;20.77;34.69;102716.94;5108707;28;20417;-30
2022/03/27 06:54:48;;;;;;;0.20;0.20;;;;;;;20.76;34.67;102718.84;5109508;28;20375;-30
2022/03/27 06:57:14;;;;;;;0.20;0.20;;;;;;;20.76;34.73;102721.63;5108064;28;20043;-30
2022/03/27 07:05:12;;;;;;;0.20;0.20;;;;;;;20.75;34.83;102725.50;5110634;28;20035;-29
2022/03/27 07:07:38;;;;;;;0.20;0.20;;;;;;;20.75;34.63;102721.88;5128087;28;20470;-29
2022/03/27 07:10:04;;;;;;;0.20;0.20;;;;;;;20.76;34.64;102724.41;5108571;28;20042;-30
2022/03/27 07:12:30;;;;;;;0.20;0.20;;;;;;;20.76;34.77;102727.16;5126834;28;20051;-30
2022/03/27 07:14:57;;;;;;;0.20;0.20;;;;;;;20.76;34.65;102726.31;5127403;28;20047;-30
2022/03/27 07:17:46;;;;;;;0.20;0.20;;;;;;;20.74;34.57;102729.34;5111762;28;20122;-30
2022/03/27 07:20:16;;;;;;;0.10;0.10;;;;;;;20.76;34.69;102729.94;5106615;28;20075;-29
2022/03/27 07:22:42;;;;;;;0.20;0.20;;;;;;;20.74;34.73;102723.81;5093838;28;20108;-29
2022/03/27 07:25:09;;;;;;;0.10;0.10;;;;;;;20.75;34.60;102721.88;5129590;28;20156;-29
2022/03/27 07:27:36;;;;;;;0.20;0.20;;;;;;;20.75;34.55;102730.19;5131073;28;20070;-30
2022/03/27 07:30:04;;;;;;;0.20;0.20;;;;;;;20.75;34.63;102730.19;5112922;28;21271;-29
2022/03/27 07:32:30;;;;;;;0.10;0.10;;;;;;;20.75;34.63;102727.41;5129872;28;20105;-29
2022/03/27 07:34:56;;;;;;;0.20;0.20;;;;;;;20.76;34.57;102737.41;5112168;28;20526;-29
2022/03/27 07:37:22;;;;;;;0.20;0.20;;;;;;;20.75;34.67;102731.03;5131831;27;20254;-30
2022/03/27 07:39:47;;;;;;;0.20;0.20;;;;;;;20.75;34.65;102733.78;5130056;28;20055;-29
2022/03/27 07:42:13;;;;;;;0.20;0.20;;;;;;;20.76;34.51;102737.41;5130369;27;20485;-29
2022/03/27 07:44:39;;;;;;;0.20;0.20;;;;;;;20.74;34.69;102734.88;5126755;28;20548;-29
2022/03/27 07:47:05;;;;;;;0.20;0.20;;;;;;;20.75;34.76;102736.56;5129864;28;20494;-29
2022/03/27 07:49:30;;;;;;;0.20;0.20;;;;;;;20.75;34.77;102728.25;5129772;28;20054;-29
2022/03/27 07:51:56;;;;;;;0.20;0.20;;;;;;;20.75;34.44;102732.97;5129300;28;20039;-30
2022/03/27 07:54:22;;;;;;;0.20;0.20;;;;;;;20.74;34.61;102732.13;5128432;28;20046;-30
2022/03/27 07:56:48;;;;;;;0.15;0.15;;;;;;;20.74;34.87;102736.81;5126330;28;20042;-30
2022/03/27 07:59:14;;;;;;;0.20;0.20;;;;;;;20.75;34.77;102735.72;5124175;28;20505;-30
2022/03/27 08:01:39;;;;;;;0.20;0.20;;;;;;;20.75;34.65;102732.97;5131189;28;20046;-30
2022/03/27 08:04:05;;;;;;;0.20;0.20;;;;;;;20.75;34.58;102735.72;5128109;28;20051;-30
2022/03/27 08:06:36;;;;;;;0.20;0.20;;;;;;;20.76;34.37;102737.41;5129532;28;20047;-30
2022/03/27 08:09:04;;;;;;;0.20;0.20;;;;;;;20.76;34.64;102732.69;5111854;28;20082;-29
2022/03/27 08:11:29;;;;;;;0.20;0.20;;;;;;;20.75;34.79;102738.50;5129514;28;20490;-30
2022/03/27 08:13:55;;;;;;;0.20;0.20;;;;;;;20.74;34.73;102729.34;5127461;28;20053;-29
2022/03/27 08:16:21;;;;;;;0.20;0.20;;;;;;;20.75;34.82;102732.97;5128945;28;20389;-29
2022/03/27 08:18:46;;;;;;;0.20;0.20;;;;;;;20.75;34.52;102730.19;5127316;28;20143;-29
2022/03/27 08:21:12;;;;;;;0.20;0.20;;;;;;;20.73;34.88;102730.44;5129256;28;20046;-29
2022/03/27 08:23:38;;;;;;;0.20;0.20;;;;;;;20.76;34.76;102732.69;5130039;28;20062;-29
2022/03/27 08:28:49;;;;;;;0.20;0.20;;;;;;;20.73;34.88;102718.53;5113388;28;20486;-29
2022/03/27 08:31:15;;;;;;;0.15;0.15;;;;;;;20.74;34.68;102729.34;5128765;28;20043;-29
2022/03/27 08:33:41;;;;;;;0.20;0.20;;;;;;;20.75;34.67;102727.41;5110136;28;20549;-29
2022/03/27 08:36:06;;;;;;;0.20;0.20;;;;;;;20.74;34.82;102723.81;5127576;28;20047;-29
2022/03/27 08:38:32;;;;;;;0.20;0.20;;;;;;;20.73;34.86;102718.53;5130131;28;20045;-29
2022/03/27 08:41:01;;;;;;;0.10;0.10;;;;;;;20.73;34.55;102722.16;5128963;28;20417;-30
2022/03/27 08:43:26;;;;;;;0.20;0.20;;;;;;;20.75;34.79;102724.66;5128791;28;20085;-30
2022/03/27 08:45:52;;;;;;;0.20;0.20;;;;;;;20.74;34.65;102720.22;5128001;28;20043;-30
2022/03/27 08:48:18;;;;;;;0.20;0.20;;;;;;;20.74;34.64;102718.28;5124001;28;20416;-30
2022/03/27 08:50:50;;;;;;;0.20;0.20;;;;;;;20.75;34.85;102716.34;5126021;28;20047;-30
2022/03/27 08:53:22;;;;;;;0.20;0.20;;;;;;;20.74;34.60;102718.28;5128045;28;20500;-29
2022/03/27 08:55:57;;;;;;;0.10;0.10;;;;;;;20.74;34.62;102715.50;5128274;28;20507;-29
2022/03/27 08:58:31;;;;;;;0.20;0.20;;;;;;;20.74;34.89;102718.28;5109798;28;20078;-29
2022/03/27 09:00:57;;;;;;;0.20;0.20;;;;;;;20.75;34.71;102716.34;5123478;28;20092;-29
2022/03/27 09:03:23;;;;;;;0.20;0.20;;;;;;;20.73;34.70;102722.16;5110657;28;20068;-30
2022/03/27 09:05:49;;;;;;;0.20;0.20;;;;;;;20.73;34.61;102722.16;5127481;28;20074;-29
2022/03/27 09:08:15;;;;;;;0.20;0.20;;;;;;;20.73;34.55;102724.06;5129043;28;20405;-29
2022/03/27 09:10:41;;;;;;;0.20;0.20;;;;;;;20.73;34.81;102724.06;5127913;28;20586;-29
2022/03/27 09:13:11;;;;;;;0.20;0.20;;;;;;;20.74;34.97;102726.59;5111514;28;20050;-29
2022/03/27 09:15:37;;;;;;;0.10;0.10;;;;;;;20.73;34.69;102726.84;5093455;28;20504;-29
2022/03/27 09:18:09;;;;;;;0.10;0.10;;;;;;;20.73;34.97;102733.22;5122229;28;20047;-29
2022/03/27 09:20:45;;;;;;;0.20;0.20;;;;;;;20.74;34.74;102739.59;5107717;28;20071;-30
2022/03/27 09:23:28;;;;;;;0.20;0.20;;;;;;;20.73;34.56;102735.16;5112330;28;20047;-29
2022/03/27 09:25:57;;;;;;;0.20;0.20;;;;;;;20.72;34.87;102731.50;5109028;28;20172;-30
2022/03/27 09:28:40;;;;;;;0.20;0.20;;;;;;;20.72;34.83;102734.28;5107528;28;20078;-29
2022/03/27 09:31:22;;;;;;;0.10;0.10;;;;;;;20.73;34.89;102729.59;5093328;28;20576;-29
2022/03/27 09:33:50;;;;;;;0.10;0.10;;;;;;;20.72;34.54;102731.50;5108158;28;20051;-29
2022/03/27 09:36:21;;;;;;;0.20;0.20;;;;;;;20.73;34.75;102729.59;5127149;28;20077;-29
2022/03/27 09:39:08;;;;;;;0.20;0.20;;;;;;;20.72;34.62;102714.91;5127155;28;20086;-29
2022/03/27 09:41:40;;;;;;;0.20;0.20;;;;;;;20.72;34.81;102720.44;5113087;28;20393;-29
2022/03/27 09:44:11;;;;;;;0.10;0.10;;;;;;;20.73;34.95;102713.84;5110432;28;20458;-29
2022/03/27 09:47:00;;;;;;;0.20;0.20;;;;;;;20.72;34.63;102714.91;5110125;28;20079;-29
2022/03/27 09:49:38;;;;;;;0.20;0.20;;;;;;;20.72;34.72;102723.19;5095647;28;20111;-29
2022/03/27 09:52:13;;;;;;;0.20;0.20;;;;;;;20.73;34.86;102718.53;5127043;27;20047;-29
2022/03/27 09:54:56;;;;;;;0.20;0.20;;;;;;;20.72;34.86;102714.06;5128125;27;20047;-29
2022/03/27 09:57:25;;;;;;;0.20;0.20;;;;;;;20.73;34.90;102713.00;5092694;28;20086;-29
2022/03/27 09:59:52;;;;;;;0.20;0.20;;;;;;;20.71;34.80;102709.63;5127601;28;20132;-29
2022/03/27 10:02:25;;;;;;;0.20;0.20;;;;;;;20.72;34.80;102709.38;5107938;28;20473;-30
2022/03/27 10:05:08;;;;;;;0.20;0.20;;;;;;;20.72;34.84;102706.59;5108355;28;20134;-29
2022/03/27 10:07:40;;;;;;;0.20;0.20;;;;;;;20.73;34.85;102704.69;5107711;28;20082;-29
2022/03/27 10:10:08;;;;;;;0.10;0.10;;;;;;;20.73;34.85;102705.53;5128741;28;20054;-29
2022/03/27 10:12:37;;;;;;;0.20;0.20;;;;;;;20.72;34.64;102703.81;5108597;28;20071;-30
2022/03/27 10:15:06;;;;;;;0.20;0.20;;;;;;;20.71;34.70;102695.78;5111930;28;20070;-29
2022/03/27 10:17:34;;;;;;;0.20;0.20;;;;;;;20.72;35.08;102692.75;5127145;27;20180;-29
2022/03/27 10:20:04;;;;;;;0.10;0.10;;;;;;;20.72;34.73;102694.69;5108414;28;20085;-29
2022/03/27 10:22:30;;;;;;;0.20;0.20;;;;;;;20.70;35.03;102689.41;5092116;28;20528;-29
2022/03/27 10:25:01;;;;;;;0.20;0.20;;;;;;;20.72;34.83;102689.16;5109023;28;20541;-29
2022/03/27 10:27:29;;;;;;;0.20;0.20;;;;;;;20.70;34.92;102685.81;5125593;28;20071;-29
2022/03/27 10:29:55;;;;;;;0.20;0.20;;;;;;;20.71;34.88;102693.00;5111151;28;20098;-29
2022/03/27 10:32:20;;;;;;;0.20;0.20;;;;;;;20.72;34.72;102683.59;5108539;28;20393;-29
2022/03/27 10:34:53;;;;;;;0.20;0.20;;;;;;;20.72;34.90;102687.22;5127385;28;20092;-29
2022/03/27 10:37:32;;;;;;;0.20;0.20;;;;;;;20.71;34.66;102681.94;5127109;28;20195;-29
2022/03/27 10:40:17;;;;;;;0.20;0.20;;;;;;;20.70;34.85;102683.88;5122925;27;20075;-29
2022/03/27 10:43:07;;;;;;;0.20;0.20;;;;;;;20.72;34.75;102669.75;5127721;28;20086;-30
2022/03/27 10:45:35;;;;;;;0.10;0.10;;;;;;;20.71;35.00;102674.47;5109433;28;20559;-29
2022/03/27 10:48:17;;;;;;;0.17;0.17;;;;;;;20.71;34.67;102668.09;5127597;28;20624;-29
2022/03/27 10:50:50;;;;;;;0.20;0.20;;;;;;;20.70;34.66;102674.72;5107033;28;20078;-30
2022/03/27 10:53:19;;;;;;;0.20;0.20;;;;;;;20.69;34.92;102673.88;5126764;28;20336;-29
2022/03/27 10:55:45;;;;;;;;;;;;;;;20.70;34.52;102661.72;5107803;28;20130;-29
2022/03/27 10:58:33;;;;;;;0.20;0.20;;;;;;;20.70;35.07;102663.66;5108638;28;19966;-29
2022/03/27 11:01:00;;;;;;;0.20;0.20;;;;;;;20.72;34.87;102658.69;5126779;28;20047;-29
2022/03/27 11:03:47;;;;;;;0.10;0.10;;;;;;;20.71;34.59;102659.78;5108492;28;20126;-29
2022/03/27 11:06:21;;;;;;;0.20;0.20;;;;;;;20.71;34.76;102654.25;5107313;28;20510;-30
2022/03/27 11:08:48;;;;;;;0.20;0.20;;;;;;;20.70;35.03;102656.19;5109199;28;20067;-29
2022/03/27 11:11:37;;;;;;;0.20;0.20;;;;;;;20.70;34.73;102655.34;5107016;28;20043;-30
2022/03/27 11:14:04;;;;;;;0.10;0.10;;;;;;;20.71;34.94;102646.78;5111702;28;20497;-30
2022/03/27 11:16:29;;;;;;;0.20;0.20;;;;;;;20.71;34.89;102648.72;5124084;28;20067;-29
2022/03/27 11:18:55;;;;;;;0.20;0.20;;;;;;;20.69;34.71;102629.59;5126636;27;20419;-30
2022/03/27 11:26:44;;;;;;;0.20;0.20;;;;;;;20.70;34.85;102633.19;5175448;27;20123;-27
2022/03/27 11:29:21;;;;;;;0.20;0.20;;;;;;;20.71;34.65;102629.34;5158389;27;20035;-27
2022/03/27 11:32:07;;;;;;;0.20;0.20;;;;;;;20.69;34.84;102629.59;5144333;27;20077;-27
2022/03/27 11:34:33;;;;;;;0.10;0.10;;;;;;;20.70;34.75;102624.88;5142676;27;20500;-28
2022/03/27 11:37:22;;;;;;;0.20;0.20;;;;;;;20.71;34.97;102623.78;5157231;27;20081;-27
2022/03/27 11:39:49;;;;;;;0.20;0.20;;;;;;;20.70;35.14;102624.88;5134742;27;20050;-28
2022/03/27 11:42:32;;;;;;;0.20;0.20;;;;;;;20.69;34.63;102624.06;5114864;27;20089;-27
2022/03/27 11:45:17;;;;;;;0.13;0.13;;;;;;;20.69;34.97;102610.22;5153243;27;20081;-27